createdAt,value
2023-10-28T00:00:15.990Z,101627.63
2023-10-28T00:02:44.324Z,101629.66
2023-10-28T00:05:12.726Z,101622.84
2023-10-28T00:07:43.091Z,101624.75
2023-10-28T00:10:11.912Z,101626.53
2023-10-28T00:12:40.447Z,101621.28
2023-10-28T00:15:10.014Z,101628.59
2023-10-28T00:17:39.744Z,101627.03
2023-10-28T00:20:08.549Z,101619.03
2023-10-28T00:22:36.879Z,101623.69
2023-10-28T00:25:07.085Z,101632.72
2023-10-28T00:27:35.679Z,101628.47
2023-10-28T00:30:04.362Z,101633.03
2023-10-28T00:32:33.109Z,101631.44
2023-10-28T00:35:01.674Z,101647.47
2023-10-28T00:37:30.088Z,101644.06
2023-10-28T00:39:58.635Z,101639.03
2023-10-28T00:42:27.519Z,101641.00
2023-10-28T00:44:58.814Z,101642.00
2023-10-28T00:47:27.314Z,101643.97
2023-10-28T00:49:55.889Z,101655.72
2023-10-28T00:52:28.602Z,101650.53
2023-10-28T00:54:58.674Z,101668.41
2023-10-28T00:57:29.011Z,101658.75
2023-10-28T00:59:58.073Z,101662.53
2023-10-28T01:02:27.271Z,101660.00
2023-10-28T01:04:56.277Z,101658.34
2023-10-28T01:07:24.589Z,101665.53
2023-10-28T01:09:52.968Z,101662.06
2023-10-28T01:12:23.252Z,101665.81
2023-10-28T01:14:52.198Z,101663.34
2023-10-28T01:17:23.297Z,101672.28
2023-10-28T01:19:51.547Z,101675.91
2023-10-28T01:22:20.735Z,101675.22
2023-10-28T01:24:49.257Z,101674.38
2023-10-28T01:27:18.169Z,101676.31
2023-10-28T01:29:47.599Z,101684.44
2023-10-28T01:32:16.993Z,101683.53
2023-10-28T01:34:53.845Z,101681.84
2023-10-28T01:37:23.233Z,101679.25
2023-10-28T01:39:54.155Z,101692.63
2023-10-28T01:42:24.238Z,101687.38
2023-10-28T01:44:52.918Z,101693.63
2023-10-28T01:47:21.522Z,101704.34
2023-10-28T01:49:50.424Z,101705.28
2023-10-28T01:52:18.725Z,101701.75
2023-10-28T01:54:46.968Z,101700.16
2023-10-28T01:57:15.364Z,101704.69
2023-10-28T01:59:43.602Z,101705.53
2023-10-28T02:02:11.860Z,101711.75
2023-10-28T02:04:40.353Z,101709.94
2023-10-28T02:07:08.591Z,101710.03
2023-10-28T02:09:36.856Z,101715.41
2023-10-28T02:12:06.314Z,101718.19
2023-10-28T02:14:34.652Z,101718.19
2023-10-28T02:17:02.937Z,101719.13
2023-10-28T02:19:31.958Z,101719.19
2023-10-28T02:22:12.718Z,101721.91
2023-10-28T02:24:43.355Z,101731.69
2023-10-28T02:27:12.964Z,101730.06
2023-10-28T02:29:41.323Z,101724.78
2023-10-28T02:32:11.524Z,101723.06
2023-10-28T02:34:39.900Z,101726.66
2023-10-28T02:37:08.093Z,101724.84
2023-10-28T02:39:36.727Z,101724.91
2023-10-28T02:42:06.283Z,101714.31
2023-10-28T02:44:35.130Z,101716.19
2023-10-28T02:47:03.639Z,101710.97
2023-10-28T02:49:32.380Z,101710.22
2023-10-28T02:52:00.651Z,101706.69
2023-10-28T02:54:28.907Z,101713.78
2023-10-28T02:56:57.154Z,101712.94
2023-10-28T02:59:25.394Z,101713.91
2023-10-28T03:01:53.670Z,101711.38
2023-10-28T03:04:22.445Z,101716.78
2023-10-28T03:06:50.680Z,101728.38
2023-10-28T03:09:19.414Z,101727.53
2023-10-28T03:11:47.785Z,101728.47
2023-10-28T03:14:16.076Z,101725.91
2023-10-28T03:16:46.631Z,101731.31
2023-10-28T03:19:14.944Z,101732.19
2023-10-28T03:21:43.228Z,101724.19
2023-10-28T03:24:11.777Z,101721.63
2023-10-28T03:26:40.536Z,101720.81
2023-10-28T03:29:08.847Z,101724.50
2023-10-28T03:31:37.191Z,101724.63
2023-10-28T03:34:07.592Z,101732.72
2023-10-28T03:36:35.835Z,101737.28
2023-10-28T03:39:04.152Z,101738.25
2023-10-28T03:41:32.380Z,101742.81
2023-10-28T03:44:00.652Z,101740.28
2023-10-28T03:46:28.960Z,101746.59
2023-10-28T03:48:57.194Z,101750.25
2023-10-28T03:51:25.526Z,101747.63
2023-10-28T03:53:53.840Z,101746.00
2023-10-28T03:56:22.115Z,101754.91
2023-10-28T03:58:50.443Z,101748.81
2023-10-28T04:01:19.159Z,101745.34
2023-10-28T04:03:47.519Z,101748.00
2023-10-28T04:06:15.798Z,101746.25
2023-10-28T04:08:44.048Z,101740.13
2023-10-28T04:11:12.501Z,101739.31
2023-10-28T04:13:43.826Z,101750.00
2023-10-28T04:16:12.236Z,101739.47
2023-10-28T04:18:41.756Z,101738.59
2023-10-28T04:21:10.708Z,101747.47
2023-10-28T04:23:38.975Z,101754.63
2023-10-28T04:26:07.434Z,101749.38
2023-10-28T04:28:35.731Z,101761.72
2023-10-28T04:31:04.208Z,101770.63
2023-10-28T04:33:33.069Z,101775.16
2023-10-28T04:36:01.345Z,101766.38
2023-10-28T04:38:30.964Z,101762.06
2023-10-28T04:40:59.370Z,101759.50
2023-10-28T04:43:27.710Z,101764.03
2023-10-28T04:45:56.120Z,101765.03
2023-10-28T04:48:24.624Z,101765.94
2023-10-28T04:50:52.848Z,101767.88
2023-10-28T04:53:21.107Z,101775.91
2023-10-28T04:55:49.366Z,101773.31
2023-10-28T04:58:17.979Z,101783.09
2023-10-28T05:00:47.130Z,101777.88
2023-10-28T05:03:15.504Z,101783.25
2023-10-28T05:05:43.787Z,101789.53
2023-10-28T05:08:12.066Z,101802.84
2023-10-28T05:10:40.428Z,101802.91
2023-10-28T05:13:08.688Z,101800.34
2023-10-28T05:15:36.892Z,101811.03
2023-10-28T05:18:05.472Z,101807.53
2023-10-28T05:20:35.942Z,101812.84
2023-10-28T05:23:04.323Z,101824.41
2023-10-28T05:25:32.716Z,101824.41
2023-10-28T05:28:01.553Z,101829.75
2023-10-28T05:30:29.798Z,101836.00
2023-10-28T05:32:58.038Z,101838.72
2023-10-28T05:35:26.268Z,101827.28
2023-10-28T05:37:54.513Z,101826.50
2023-10-28T05:40:22.889Z,101834.47
2023-10-28T05:42:51.234Z,101831.91
2023-10-28T05:45:20.537Z,101836.38
2023-10-28T05:47:49.594Z,101831.94
2023-10-28T05:50:19.733Z,101828.38
2023-10-28T05:52:48.012Z,101825.72
2023-10-28T05:55:16.314Z,101830.16
2023-10-28T05:57:45.838Z,101833.72
2023-10-28T06:00:15.285Z,101828.47
2023-10-28T06:02:44.556Z,101826.69
2023-10-28T06:05:12.915Z,101825.81
2023-10-28T06:07:43.585Z,101832.00
2023-10-28T06:10:12.730Z,101839.94
2023-10-28T06:12:41.008Z,101829.31
2023-10-28T06:15:10.057Z,101830.19
2023-10-28T06:17:38.581Z,101821.38
2023-10-28T06:20:07.554Z,101817.91
2023-10-28T06:22:36.094Z,101824.16
2023-10-28T06:25:06.348Z,101822.44
2023-10-28T06:27:35.583Z,101826.03
2023-10-28T06:30:04.522Z,101825.19
2023-10-28T06:32:32.836Z,101823.47
2023-10-28T06:35:01.138Z,101817.31
2023-10-28T06:37:29.413Z,101825.34
2023-10-28T06:39:57.628Z,101825.38
2023-10-28T06:42:26.043Z,101826.28
2023-10-28T06:44:54.996Z,101824.59
2023-10-28T06:47:23.350Z,101825.53
2023-10-28T06:49:53.267Z,101821.19
2023-10-28T06:52:21.502Z,101817.72
2023-10-28T06:54:49.680Z,101816.81
2023-10-28T06:57:17.983Z,101821.25
2023-10-28T06:59:46.410Z,101823.00
2023-10-28T07:02:14.963Z,101826.53
2023-10-28T07:04:43.738Z,101824.75
2023-10-28T07:07:16.338Z,101819.47
2023-10-28T07:09:45.097Z,101823.91
2023-10-28T07:12:13.522Z,101831.03
2023-10-28T07:14:41.904Z,101819.63
2023-10-28T07:17:13.192Z,101818.78
2023-10-28T07:19:41.561Z,101812.56
2023-10-28T07:22:09.909Z,101810.84
2023-10-28T07:24:38.146Z,101813.56
2023-10-28T07:27:06.809Z,101813.59
2023-10-28T07:29:35.033Z,101812.75
2023-10-28T07:32:04.558Z,101815.41
2023-10-28T07:34:33.424Z,101815.44
2023-10-28T07:37:02.213Z,101819.03
2023-10-28T07:39:30.432Z,101830.56
2023-10-28T07:41:58.668Z,101828.81
2023-10-28T07:44:27.130Z,101829.75
2023-10-28T07:46:56.074Z,101834.16
2023-10-28T07:49:24.733Z,101826.25
2023-10-28T07:51:52.984Z,101822.72
2023-10-28T07:54:21.198Z,101823.63
2023-10-28T07:56:49.442Z,101817.41
2023-10-28T07:59:17.787Z,101818.34
2023-10-28T08:01:46.013Z,101826.31
2023-10-28T08:04:15.932Z,101829.84
2023-10-28T08:06:44.674Z,101838.66
2023-10-28T08:09:13.099Z,101836.03
2023-10-28T08:11:42.236Z,101833.44
2023-10-28T08:14:10.545Z,101832.53
2023-10-28T08:16:38.917Z,101832.53
2023-10-28T08:19:08.959Z,101827.28
2023-10-28T08:21:37.168Z,101827.28
2023-10-28T08:24:05.961Z,101830.84
2023-10-28T08:26:34.210Z,101830.00
2023-10-28T08:29:02.525Z,101830.00
2023-10-28T08:31:30.968Z,101847.66
2023-10-28T08:33:59.240Z,101852.09
2023-10-28T08:36:27.705Z,101845.94
2023-10-28T08:38:57.070Z,101855.72
2023-10-28T08:41:26.522Z,101853.94
2023-10-28T08:44:01.895Z,101852.16
2023-10-28T08:46:31.244Z,101841.59
2023-10-28T08:49:01.220Z,101839.84
2023-10-28T08:51:29.595Z,101846.00
2023-10-28T08:54:01.003Z,101838.09
2023-10-28T08:56:30.845Z,101847.78
2023-10-28T08:58:59.115Z,101842.53
2023-10-28T09:01:29.426Z,101843.41
2023-10-28T09:04:02.957Z,101838.13
2023-10-28T09:06:31.314Z,101835.50
2023-10-28T09:08:59.635Z,101838.13
2023-10-28T09:11:28.733Z,101839.03
2023-10-28T09:13:58.276Z,101843.47
2023-10-28T09:16:26.524Z,101845.25
2023-10-28T09:18:54.729Z,101842.63
2023-10-28T09:21:22.956Z,101843.50
2023-10-28T09:23:51.234Z,101837.31
2023-10-28T09:26:20.241Z,101835.56
2023-10-28T09:28:49.029Z,101838.25
2023-10-28T09:31:26.393Z,101832.06
2023-10-28T09:33:55.009Z,101821.47
2023-10-28T09:36:23.651Z,101824.13
2023-10-28T09:38:55.549Z,101821.50
2023-10-28T09:41:24.035Z,101820.66
2023-10-28T09:43:52.456Z,101813.63
2023-10-28T09:46:33.481Z,101812.75
2023-10-28T09:49:11.104Z,101806.59
2023-10-28T09:51:42.674Z,101799.56
2023-10-28T09:54:21.018Z,101796.94
2023-10-28T09:56:54.082Z,101794.28
2023-10-28T09:59:24.591Z,101790.78
2023-10-28T10:02:03.423Z,101789.06
2023-10-28T10:04:31.756Z,101793.47
2023-10-28T10:07:00.425Z,101790.81
2023-10-28T10:09:28.660Z,101787.31
2023-10-28T10:11:59.519Z,101792.63
2023-10-28T10:14:33.878Z,101788.25
2023-10-28T10:17:21.010Z,101792.69
2023-10-28T10:19:51.042Z,101795.38
2023-10-28T10:22:20.627Z,101801.56
2023-10-28T10:24:52.282Z,101791.91
2023-10-28T10:27:36.346Z,101792.78
2023-10-28T10:30:09.529Z,101784.88
2023-10-28T10:32:50.435Z,101791.06
2023-10-28T10:35:38.450Z,101784.91
2023-10-28T10:38:09.093Z,101782.28
2023-10-28T10:40:52.376Z,101784.06
2023-10-28T10:43:22.496Z,101781.41
2023-10-28T10:45:51.377Z,101776.13
2023-10-28T10:48:20.370Z,101767.31
2023-10-28T10:50:50.233Z,101777.03
2023-10-28T10:53:18.483Z,101782.38
2023-10-28T10:55:47.205Z,101782.41
2023-10-28T10:58:15.648Z,101783.28
2023-10-28T11:00:51.590Z,101785.06
2023-10-28T11:03:20.158Z,101785.91
2023-10-28T11:05:48.782Z,101787.69
2023-10-28T11:08:17.300Z,101782.44
2023-10-28T11:10:47.388Z,101780.72
2023-10-28T11:13:15.692Z,101785.09
2023-10-28T11:15:44.020Z,101786.88
2023-10-28T11:18:12.272Z,101786.88
2023-10-28T11:20:41.072Z,101778.97
2023-10-28T11:23:09.375Z,101784.28
2023-10-28T11:25:38.888Z,101779.91
2023-10-28T11:28:12.044Z,101782.56
2023-10-28T11:30:40.249Z,101792.25
2023-10-28T11:33:10.719Z,101786.09
2023-10-28T11:35:39.096Z,101786.09
2023-10-28T11:38:08.146Z,101787.84
2023-10-28T11:40:36.430Z,101779.94
2023-10-28T11:43:07.575Z,101788.75
2023-10-28T11:45:36.461Z,101788.75
2023-10-28T11:48:05.156Z,101792.25
2023-10-28T11:50:33.591Z,101795.78
2023-10-28T11:53:02.076Z,101801.97
2023-10-28T11:55:30.934Z,101804.63
2023-10-28T11:57:59.146Z,101803.75
2023-10-28T12:00:28.073Z,101798.47
2023-10-28T12:02:56.418Z,101808.19
2023-10-28T12:05:25.098Z,101806.41
2023-10-28T12:07:53.356Z,101804.66
2023-10-28T12:10:21.579Z,101809.94
2023-10-28T12:12:49.937Z,101805.53
2023-10-28T12:15:18.223Z,101812.56
2023-10-28T12:17:49.710Z,101810.84
2023-10-28T12:20:17.931Z,101816.13
2023-10-28T12:22:46.200Z,101816.13
2023-10-28T12:25:16.115Z,101816.09
2023-10-28T12:27:46.093Z,101819.59
2023-10-28T12:30:14.477Z,101814.34
2023-10-28T12:32:42.776Z,101819.59
2023-10-28T12:35:11.454Z,101816.94
2023-10-28T12:37:39.720Z,101819.59
2023-10-28T12:40:09.378Z,101816.97
2023-10-28T12:42:38.471Z,101813.47
2023-10-28T12:45:08.330Z,101816.97
2023-10-28T12:47:36.600Z,101813.47
2023-10-28T12:50:05.713Z,101823.13
2023-10-28T12:52:34.330Z,101824.88
2023-10-28T12:55:03.016Z,101816.09
2023-10-28T12:57:31.239Z,101809.06
2023-10-28T12:59:59.450Z,101821.38
2023-10-28T13:02:27.810Z,101822.22
2023-10-28T13:04:56.076Z,101828.41
2023-10-28T13:07:24.288Z,101821.38
2023-10-28T13:09:52.544Z,101824.88
2023-10-28T13:12:21.078Z,101817.84
2023-10-28T13:14:52.344Z,101820.47
2023-10-28T13:17:21.542Z,101832.78
2023-10-28T13:19:49.850Z,101824.00
2023-10-28T13:22:18.294Z,101831.91
2023-10-28T13:24:47.804Z,101832.75
2023-10-28T13:27:16.003Z,101829.25
2023-10-28T13:29:45.074Z,101824.84
2023-10-28T13:32:13.465Z,101824.00
2023-10-28T13:34:42.398Z,101824.84
2023-10-28T13:37:11.796Z,101823.09
2023-10-28T13:39:40.008Z,101826.59
2023-10-28T13:42:08.770Z,101818.69
2023-10-28T13:44:37.008Z,101823.06
2023-10-28T13:47:06.372Z,101825.72
2023-10-28T13:49:37.658Z,101827.44
2023-10-28T13:52:06.323Z,101828.34
2023-10-28T13:54:34.532Z,101828.34
2023-10-28T13:57:02.909Z,101833.59
2023-10-28T13:59:31.146Z,101817.81
2023-10-28T14:02:00.365Z,101820.44
2023-10-28T14:04:28.615Z,101815.13
2023-10-28T14:06:57.969Z,101820.41
2023-10-28T14:09:26.226Z,101812.50
2023-10-28T14:11:54.468Z,101824.81
2023-10-28T14:14:22.798Z,101822.16
2023-10-28T14:16:53.847Z,101817.75
2023-10-28T14:19:23.788Z,101830.06
2023-10-28T14:21:51.996Z,101831.81
2023-10-28T14:24:21.497Z,101835.31
2023-10-28T14:26:51.392Z,101841.44
2023-10-28T14:29:19.713Z,101845.88
2023-10-28T14:31:47.972Z,101845.88
2023-10-28T14:34:17.281Z,101839.72
2023-10-28T14:36:45.607Z,101836.19
2023-10-28T14:39:13.873Z,101837.94
2023-10-28T14:41:42.270Z,101844.06
2023-10-28T14:44:10.606Z,101850.22
2023-10-28T14:46:39.236Z,101867.75
2023-10-28T14:49:07.712Z,101862.50
2023-10-28T14:51:35.982Z,101857.22
2023-10-28T14:54:04.605Z,101863.38
2023-10-28T14:56:33.402Z,101872.16
2023-10-28T14:59:01.988Z,101880.94
2023-10-28T15:01:31.334Z,101880.09
2023-10-28T15:03:59.754Z,101884.47
2023-10-28T15:06:28.050Z,101880.97
2023-10-28T15:08:56.306Z,101883.66
2023-10-28T15:11:24.853Z,101888.06
2023-10-28T15:13:53.122Z,101882.81
2023-10-28T15:16:21.541Z,101883.69
2023-10-28T15:18:51.180Z,101882.84
2023-10-28T15:21:19.450Z,101881.97
2023-10-28T15:23:51.840Z,101890.78
2023-10-28T15:26:21.262Z,101893.41
2023-10-28T15:28:49.883Z,101891.66
2023-10-28T15:31:18.770Z,101894.31
2023-10-28T15:33:47.353Z,101904.88
2023-10-28T15:36:16.877Z,101902.25
2023-10-28T15:38:45.662Z,101902.25
2023-10-28T15:41:14.041Z,101914.59
2023-10-28T15:43:42.463Z,101917.25
2023-10-28T15:46:15.941Z,101918.16
2023-10-28T15:48:46.528Z,101917.22
2023-10-28T15:51:20.634Z,101919.00
2023-10-28T15:53:48.932Z,101917.22
2023-10-28T15:56:20.790Z,101906.66
2023-10-28T15:58:50.997Z,101918.94
2023-10-28T16:01:20.042Z,101926.88
2023-10-28T16:03:49.473Z,101926.84
2023-10-28T16:06:18.100Z,101918.00
2023-10-28T16:08:46.558Z,101917.09
2023-10-28T16:11:14.876Z,101919.66
2023-10-28T16:13:43.348Z,101917.88
2023-10-28T16:16:13.865Z,101910.81
2023-10-28T16:18:43.577Z,101909.91
2023-10-28T16:21:11.933Z,101916.94
2023-10-28T16:23:41.338Z,101927.47
2023-10-28T16:26:09.751Z,101923.03
2023-10-28T16:28:38.421Z,101925.63
2023-10-28T16:31:09.310Z,101925.56
2023-10-28T16:33:39.087Z,101929.94
2023-10-28T16:36:08.374Z,101932.56
2023-10-28T16:38:37.657Z,101923.69
2023-10-28T16:41:07.289Z,101925.41
2023-10-28T16:43:35.776Z,101935.03
2023-10-28T16:46:06.294Z,101929.69
2023-10-28T16:48:34.933Z,101926.97
2023-10-28T16:51:04.937Z,101926.03
2023-10-28T16:53:36.071Z,101928.59
2023-10-28T16:56:11.388Z,101927.66
2023-10-28T16:58:39.632Z,101923.13
2023-10-28T17:01:09.971Z,101923.91
2023-10-28T17:03:38.521Z,101935.31
2023-10-28T17:06:07.361Z,101931.69
2023-10-28T17:08:36.354Z,101925.41
2023-10-28T17:11:05.362Z,101921.81
2023-10-28T17:13:34.243Z,101935.81
2023-10-28T17:16:02.566Z,101930.41
2023-10-28T17:18:30.925Z,101927.66
2023-10-28T17:20:59.908Z,101929.44
2023-10-28T17:23:28.205Z,101927.66
2023-10-28T17:25:56.482Z,101922.28
2023-10-28T17:28:24.842Z,101924.84
2023-10-28T17:30:54.023Z,101918.50
2023-10-28T17:33:23.088Z,101924.56
2023-10-28T17:35:51.427Z,101913.75
2023-10-28T17:38:20.008Z,101914.53
2023-10-28T17:40:48.346Z,101913.50
2023-10-28T17:43:16.620Z,101913.38
2023-10-28T17:45:45.154Z,101907.03
2023-10-28T17:48:14.135Z,101909.59
2023-10-28T17:50:42.635Z,101912.16
2023-10-28T17:53:11.005Z,101914.59
2023-10-28T17:55:39.671Z,101905.56
2023-10-28T17:58:08.013Z,101906.19
2023-10-28T18:00:36.458Z,101907.78
2023-10-28T18:03:05.027Z,101901.44
2023-10-28T18:05:33.445Z,101903.13
2023-10-28T18:08:01.748Z,101902.13
2023-10-28T18:10:29.993Z,101903.72
2023-10-28T18:12:58.358Z,101905.31
2023-10-28T18:15:27.111Z,101906.97
2023-10-28T18:17:55.519Z,101899.78
2023-10-28T18:20:24.303Z,101897.75
2023-10-28T18:22:52.727Z,101894.84
2023-10-28T18:25:21.864Z,101900.88
2023-10-28T18:27:50.077Z,101896.38
2023-10-28T18:30:18.587Z,101893.56
2023-10-28T18:32:47.262Z,101889.00
2023-10-28T18:35:15.979Z,101886.19
2023-10-28T18:37:44.207Z,101897.50
2023-10-28T18:40:14.523Z,101888.38
2023-10-28T18:42:42.907Z,101877.53
2023-10-28T18:45:11.629Z,101887.03
2023-10-28T18:47:41.663Z,101883.97
2023-10-28T18:50:10.775Z,101887.16
2023-10-28T18:52:41.183Z,101891.31
2023-10-28T18:55:10.157Z,101875.06
2023-10-28T18:57:38.451Z,101877.63
2023-10-28T19:00:12.926Z,101879.16
2023-10-28T19:02:42.175Z,101875.97
2023-10-28T19:05:10.924Z,101871.13
2023-10-28T19:07:39.199Z,101869.00
2023-10-28T19:10:08.870Z,101866.06
2023-10-28T19:12:37.577Z,101869.22
2023-10-28T19:15:06.526Z,101861.03
2023-10-28T19:17:34.869Z,101858.97
2023-10-28T19:20:03.579Z,101856.84
2023-10-28T19:22:31.871Z,101847.63
2023-10-28T19:25:01.259Z,101838.53
2023-10-28T19:27:29.506Z,101832.09
2023-10-28T19:29:57.860Z,101832.50
2023-10-28T19:32:26.248Z,101830.31
2023-10-28T19:34:54.949Z,101820.81
2023-10-28T19:37:23.275Z,101823.00
2023-10-28T19:39:51.522Z,101813.81
2023-10-28T19:42:19.769Z,101810.78
2023-10-28T19:44:48.750Z,101814.09
2023-10-28T19:47:17.040Z,101801.56
2023-10-28T19:49:46.108Z,101793.03
2023-10-28T19:52:14.540Z,101798.66
2023-10-28T19:54:43.160Z,101790.94
2023-10-28T19:57:11.920Z,101785.16
2023-10-28T19:59:40.291Z,101784.72
2023-10-28T20:02:08.737Z,101781.59
2023-10-28T20:04:37.276Z,101773.19
2023-10-28T20:07:06.042Z,101762.09
2023-10-28T20:09:34.579Z,101763.56
2023-10-28T20:12:02.928Z,101764.50
2023-10-28T20:14:31.316Z,101757.00
2023-10-28T20:16:59.702Z,101743.22
2023-10-28T20:19:28.170Z,101740.34
2023-10-28T20:21:56.495Z,101735.56
2023-10-28T20:24:24.743Z,101729.06
2023-10-28T20:26:53.041Z,101709.97
2023-10-28T20:29:21.306Z,101723.28
2023-10-28T20:31:49.783Z,101710.63
2023-10-28T20:34:19.068Z,101711.16
2023-10-28T20:36:47.378Z,101703.81
2023-10-28T20:39:17.885Z,101701.88
2023-10-28T20:41:46.169Z,101700.56
2023-10-28T20:44:14.513Z,101699.97
2023-10-28T20:46:42.964Z,101694.84
2023-10-28T20:49:11.320Z,101692.50
2023-10-28T20:51:39.596Z,101687.72
2023-10-28T20:54:08.116Z,101693.81
2023-10-28T20:56:36.468Z,101677.41
2023-10-28T20:59:04.940Z,101674.41
2023-10-28T21:01:34.062Z,101676.50
2023-10-28T21:04:02.679Z,101676.84
2023-10-28T21:06:31.042Z,101675.75
2023-10-28T21:08:59.432Z,101660.38
2023-10-28T21:11:27.727Z,101664.56
2023-10-28T21:13:55.979Z,101655.44
2023-10-28T21:16:24.249Z,101652.72
2023-10-28T21:18:52.597Z,101644.31
2023-10-28T21:21:20.853Z,101635.69
2023-10-28T21:23:49.225Z,101636.63
2023-10-28T21:26:17.524Z,101628.94
2023-10-28T21:28:45.753Z,101621.88
2023-10-28T21:31:16.993Z,101626.06
2023-10-28T21:33:45.455Z,101626.44
2023-10-28T21:36:13.713Z,101629.34
2023-10-28T21:38:42.179Z,101619.97
2023-10-28T21:41:10.555Z,101625.28
2023-10-28T21:43:38.956Z,101622.59
2023-10-28T21:46:10.410Z,101620.31
2023-10-28T21:48:39.682Z,101620.41
2023-10-28T21:51:08.523Z,101613.56
2023-10-28T21:53:37.835Z,101614.06
2023-10-28T21:56:07.067Z,101605.91
2023-10-28T21:58:38.412Z,101603.63
2023-10-28T22:01:07.109Z,101593.16
2023-10-28T22:03:35.545Z,101594.44
2023-10-28T22:06:04.199Z,101596.00
2023-10-28T22:08:34.957Z,101585.13
2023-10-28T22:11:03.230Z,101587.06
2023-10-28T22:13:32.743Z,101587.81
2023-10-28T22:16:01.161Z,101585.06
2023-10-28T22:18:29.791Z,101588.41
2023-10-28T22:20:58.203Z,101590.50
2023-10-28T22:23:26.883Z,101583.41
2023-10-28T22:25:55.372Z,101579.41
2023-10-28T22:28:24.205Z,101587.28
2023-10-28T22:30:52.589Z,101580.25
2023-10-28T22:33:20.973Z,101570.25
2023-10-28T22:35:49.550Z,101570.94
2023-10-28T22:38:17.922Z,101579.03
2023-10-28T22:40:46.194Z,101575.28
2023-10-28T22:43:14.596Z,101589.81
2023-10-28T22:45:42.913Z,101582.06
2023-10-28T22:48:11.331Z,101575.38
2023-10-28T22:50:39.905Z,101581.59
2023-10-28T22:53:10.941Z,101574.47
2023-10-28T22:55:39.574Z,101581.25
2023-10-28T22:58:09.161Z,101577.94
2023-10-28T23:00:37.585Z,101580.25
2023-10-28T23:03:09.489Z,101578.06
2023-10-28T23:05:38.651Z,101573.00
2023-10-28T23:08:07.898Z,101576.19
2023-10-28T23:10:36.485Z,101578.50
2023-10-28T23:13:04.811Z,101573.56
2023-10-28T23:15:33.130Z,101568.34
2023-10-28T23:18:01.490Z,101564.31
2023-10-28T23:20:30.014Z,101569.22
2023-10-28T23:22:58.341Z,101564.44
2023-10-28T23:25:26.702Z,101565.00
2023-10-28T23:27:55.407Z,101552.97
2023-10-28T23:30:30.455Z,101560.41
2023-10-28T23:33:01.532Z,101559.66
2023-10-28T23:35:31.868Z,101553.53
2023-10-28T23:38:01.856Z,101563.47
2023-10-28T23:40:33.254Z,101562.69
2023-10-28T23:43:02.135Z,101561.81
2023-10-28T23:45:30.396Z,101558.22
2023-10-28T23:47:59.059Z,101561.88
2023-10-28T23:50:27.590Z,101552.94
2023-10-28T23:52:56.732Z,101555.63
2023-10-28T23:55:25.092Z,101544.13
2023-10-28T23:57:53.399Z,101549.53
